Orbital elements of FENGYUN 1C DEB
| Launched | 9 May 1999 |
| Flight ended | – |
| Launch site | Taiyuan Space Center, PRC |
| Owner | People's Republic of China |
| NORAD ID | 33747 |
| Date fetched |
Epoch osculation |
Inc. [°] |
Ecc. | RA asc node [hr] |
Arg Peri. [°] |
Mean anom [°] |
Mean motion [rev/day] |
Abs. mag |
| Date fetched |
Epoch osculation |
Inc. [°] |
Ecc. | RA asc node [hr] |
Arg Peri. [°] |
Mean anom [°] |
Mean motion [rev/day] |
Abs. mag |
| 2026 May 07 17:58 | 2026 May 05 05:23:37 | 99.0915 | 0.00909 | 15.2258 | 170.1701 | 190.1280 | 14.18752 | – |
| 2026 May 06 17:57 | 2026 May 05 05:23:37 | 99.0915 | 0.00909 | 15.2258 | 170.1701 | 190.1280 | 14.18752 | – |
| 2026 May 05 17:57 | 2026 May 05 05:23:37 | 99.0915 | 0.00909 | 15.2258 | 170.1701 | 190.1280 | 14.18752 | – |
| 2026 May 04 17:57 | 2026 Apr 28 05:49:26 | 99.0919 | 0.00903 | 14.7486 | 189.4064 | 190.1280 | 14.18752 | – |
| 2026 May 03 17:57 | 2026 Apr 28 05:49:26 | 99.0919 | 0.00903 | 14.7486 | 189.4064 | 190.1280 | 14.18752 | – |
| 2026 May 02 17:57 | 2026 Apr 28 05:49:26 | 99.0919 | 0.00903 | 14.7486 | 189.4064 | 190.1280 | 14.18752 | – |
| 2026 May 01 17:56 | 2026 Apr 28 05:49:26 | 99.0919 | 0.00903 | 14.7486 | 189.4064 | 190.1280 | 14.18752 | – |
| 2026 Apr 30 17:56 | 2026 Apr 28 05:49:26 | 99.0919 | 0.00903 | 14.7486 | 189.4064 | 190.1280 | 14.18752 | – |
| 2026 Apr 29 17:57 | 2026 Apr 22 05:56:41 | 99.0910 | 0.00897 | 14.3389 | 206.0104 | 190.1280 | 14.18752 | – |
| 2026 Apr 28 17:56 | 2026 Apr 22 05:56:41 | 99.0910 | 0.00897 | 14.3389 | 206.0104 | 190.1280 | 14.18752 | – |
| 2026 Apr 27 17:58 | 2026 Apr 22 05:56:41 | 99.0910 | 0.00897 | 14.3389 | 206.0104 | 190.1280 | 14.18752 | – |
| 2026 Apr 26 17:58 | 2026 Apr 22 05:56:41 | 99.0910 | 0.00897 | 14.3389 | 206.0104 | 190.1280 | 14.18752 | – |
| 2026 Apr 25 17:58 | 2026 Apr 22 05:56:41 | 99.0910 | 0.00897 | 14.3389 | 206.0104 | 190.1280 | 14.18752 | – |
| 2026 Apr 24 17:59 | 2026 Apr 22 05:56:41 | 99.0910 | 0.00897 | 14.3389 | 206.0104 | 190.1280 | 14.18752 | – |
| 2026 Apr 23 17:57 | 2026 Apr 18 05:27:32 | 99.0911 | 0.00891 | 14.0642 | 217.2390 | 190.1280 | 14.18752 | – |
| 2026 Apr 22 17:57 | 2026 Apr 18 05:27:32 | 99.0911 | 0.00891 | 14.0642 | 217.2390 | 190.1280 | 14.18752 | – |
| 2026 Apr 21 17:57 | 2026 Apr 18 05:27:32 | 99.0911 | 0.00891 | 14.0642 | 217.2390 | 190.1280 | 14.18752 | – |
| 2026 Apr 20 17:57 | 2026 Apr 18 05:27:32 | 99.0911 | 0.00891 | 14.0642 | 217.2390 | 190.1280 | 14.18752 | – |
| 2026 Apr 19 17:58 | 2026 Apr 18 05:27:32 | 99.0911 | 0.00891 | 14.0642 | 217.2390 | 190.1280 | 14.18752 | – |
| 2026 Apr 18 17:56 | 2026 Apr 12 17:25:25 | 99.0897 | 0.00884 | 13.6883 | 232.6869 | 190.1280 | 14.18752 | – |
| 2026 Apr 16 17:57 | 2026 Apr 12 17:25:25 | 99.0897 | 0.00884 | 13.6883 | 232.6869 | 190.1280 | 14.18752 | – |
| 2026 Apr 14 17:57 | 2026 Apr 12 17:25:25 | 99.0897 | 0.00884 | 13.6883 | 232.6869 | 190.1280 | 14.18752 | – |
| 2026 Apr 13 17:57 | 2026 Apr 12 17:25:25 | 99.0897 | 0.00884 | 13.6883 | 232.6869 | 190.1280 | 14.18752 | – |
| 2026 Apr 12 17:57 | 2026 Apr 08 05:05:07 | 99.0893 | 0.00876 | 13.3798 | 245.4528 | 190.1280 | 14.18752 | – |
| 2026 Apr 11 17:57 | 2026 Apr 08 05:05:07 | 99.0893 | 0.00876 | 13.3798 | 245.4528 | 190.1280 | 14.18752 | – |
| 2026 Apr 10 17:58 | 2026 Apr 08 05:05:07 | 99.0893 | 0.00876 | 13.3798 | 245.4528 | 190.1280 | 14.18752 | – |